Observation data for Seymour on 01/15/2019      Previous  Date  Next       Current Mesonet Observations  Soil Data  Daily Summary Page  Observations in Plain Language
KSE1 150600Z 15004KT 02/01 A3029 RMK A01 T00210011  RH  094%=      5-min Rain = 0
KSE1 150605Z 15003KT 02/01 A3029 RMK A01 T00210011  RH  094%=      5-min Rain = 0
KSE1 150610Z 16003KT 02/01 A3029 RMK A01 T00210011  RH  094%=      5-min Rain = 0
KSE1 150615Z 16002KT 02/01 A3029 RMK A01 T00210010  RH  094%=      5-min Rain = 0
KSE1 150620Z 18002KT 02/01 A3029 RMK A01 T00190008  RH  094%=      5-min Rain = 0
KSE1 150625Z 18002KT 02/01 A3029 RMK A01 T00180008  RH  094%=      5-min Rain = 0
KSE1 150630Z 16002KT 02/01 A3029 RMK A01 T00190009  RH  094%=      5-min Rain = 0
KSE1 150635Z 17002KT 02/01 A3029 RMK A01 T00190009  RH  094%=      5-min Rain = 0
KSE1 150640Z 18001KT 02/01 A3029 RMK A01 T00200010  RH  095%=      5-min Rain = 0
KSE1 150645Z 17001KT 02/01 A3029 RMK A01 T00200011  RH  095%=      5-min Rain = 0
KSE1 150650Z 18001KT 02/01 A3029 RMK A01 T00210011  RH  095%=      5-min Rain = 0
KSE1 150655Z 18000KT 02/01 A3028 RMK A01 T00210011  RH  095%=      5-min Rain = 0
KSE1 150700Z 00000KT 02/01 A3028 RMK A01 T00210012  RH  095%=      5-min Rain = 0
KSE1 150705Z 18001KT 02/01 A3028 RMK A01 T00210011  RH  095%=      5-min Rain = 0
KSE1 150710Z 17002KT 02/01 A3028 RMK A01 T00210011  RH  095%=      5-min Rain = 0
KSE1 150715Z 17002KT 02/01 A3028 RMK A01 T00210011  RH  095%=      5-min Rain = 0
KSE1 150720Z 18002KT 02/01 A3028 RMK A01 T00200011  RH  095%=      5-min Rain = 0
KSE1 150725Z 20002KT 02/01 A3028 RMK A01 T00170007  RH  095%=      5-min Rain = 0
KSE1 150730Z 20002KT 02/01 A3028 RMK A01 T00170009  RH  095%=      5-min Rain = 0
KSE1 150735Z 20002KT 02/01 A3028 RMK A01 T00200012  RH  096%=      5-min Rain = 0
KSE1 150740Z 20002KT 02/01 A3028 RMK A01 T00210013  RH  096%=      5-min Rain = 0
KSE1 150745Z 21002KT 02/02 A3028 RMK A01 T00230015  RH  096%=      5-min Rain = 0
KSE1 150750Z 21002KT 03/02 A3028 RMK A01 T00250016  RH  096%=      5-min Rain = 0
KSE1 150755Z 20001KT 03/02 A3028 RMK A01 T00260017  RH  096%=      5-min Rain = 0
KSE1 150800Z 20002KT 03/02 A3028 RMK A01 T00270018  RH  096%=      5-min Rain = 0
KSE1 150805Z 20003KT 03/02 A3029 RMK A01 T00280019  RH  096%=      5-min Rain = 0
KSE1 150810Z 19002KT 03/02 A3029 RMK A01 T00280019  RH  095%=      5-min Rain = 0
KSE1 150815Z 18003KT 03/02 A3029 RMK A01 T00300022  RH  095%=      5-min Rain = 0
KSE1 150820Z 19003KT 03/02 A3029 RMK A01 T00330024  RH  095%=      5-min Rain = 0
KSE1 150825Z 19003KT 04/03 A3029 RMK A01 T00360027  RH  095%=      5-min Rain = 0
KSE1 150830Z 17002KT 04/03 A3029 RMK A01 T00380029  RH  095%=      5-min Rain = 0
KSE1 150835Z 16002KT 04/03 A3029 RMK A01 T00400031  RH  096%=      5-min Rain = 0
KSE1 150840Z 12002KT 04/03 A3029 RMK A01 T00380029  RH  095%=      5-min Rain = 0
KSE1 150845Z 11002KT 04/03 A3029 RMK A01 T00380029  RH  095%=      5-min Rain = 0
KSE1 150850Z 12002KT 04/03 A3029 RMK A01 T00390030  RH  095%=      5-min Rain = 0
KSE1 150855Z 12001KT 04/03 A3029 RMK A01 T00410031  RH  095%=      5-min Rain = 0
KSE1 150900Z 12002KT 04/03 A3029 RMK A01 T00420033  RH  095%=      5-min Rain = 0
KSE1 150905Z 12003KT 04/03 A3028 RMK A01 T00430033  RH  095%=      5-min Rain = 0
KSE1 150910Z 13003KT 04/03 A3028 RMK A01 T00440033  RH  095%=      5-min Rain = 0
KSE1 150915Z 14003KT 04/03 A3028 RMK A01 T00440033  RH  095%=      5-min Rain = 0
KSE1 150920Z 16003KT 05/04 A3028 RMK A01 T00450035  RH  095%=      5-min Rain = 0
KSE1 150925Z 15003KT 05/04 A3028 RMK A01 T00470037  RH  095%=      5-min Rain = 0
KSE1 150930Z 15003KT 05/04 A3028 RMK A01 T00490038  RH  095%=      5-min Rain = 0
KSE1 150935Z 15003KT 05/04 A3027 RMK A01 T00500039  RH  095%=      5-min Rain = 0
KSE1 150940Z 15003KT 05/04 A3027 RMK A01 T00510040  RH  095%=      5-min Rain = 0
KSE1 150945Z 16004KT 05/04 A3027 RMK A01 T00520040  RH  094%=      5-min Rain = 0
KSE1 150950Z 16004KT 05/04 A3027 RMK A01 T00520040  RH  094%=      5-min Rain = 0
KSE1 150955Z 14003KT 05/04 A3026 RMK A01 T00510039  RH  093%=      5-min Rain = 0
KSE1 151000Z 15002KT 05/04 A3026 RMK A01 T00500037  RH  093%=      5-min Rain = 0
KSE1 151005Z 17002KT 05/04 A3026 RMK A01 T00510038  RH  093%=      5-min Rain = 0
KSE1 151010Z 17003KT 05/04 A3026 RMK A01 T00520039  RH  093%=      5-min Rain = 0
KSE1 151015Z 17002KT 05/04 A3026 RMK A01 T00530040  RH  093%=      5-min Rain = 0
KSE1 151020Z 17004KT 06/04 A3026 RMK A01 T00560042  RH  093%=      5-min Rain = 0
KSE1 151025Z 17004KT 06/04 A3026 RMK A01 T00570042  RH  092%=      5-min Rain = 0
KSE1 151030Z 18003KT 06/04 A3026 RMK A01 T00570042  RH  091%=      5-min Rain = 0
KSE1 151035Z 18003KT 06/04 A3026 RMK A01 T00570041  RH  091%=      5-min Rain = 0
KSE1 151040Z 19002KT 06/04 A3026 RMK A01 T00570041  RH  091%=      5-min Rain = 0
KSE1 151045Z 19002KT 06/04 A3026 RMK A01 T00570041  RH  091%=      5-min Rain = 0
KSE1 151050Z 19003KT 06/04 A3026 RMK A01 T00570041  RH  091%=      5-min Rain = 0
KSE1 151055Z 19003KT 06/04 A3026 RMK A01 T00570041  RH  091%=      5-min Rain = 0
KSE1 151100Z 18003KT 06/04 A3026 RMK A01 T00570041  RH  091%=      5-min Rain = 0
KSE1 151105Z 18003KT 06/04 A3026 RMK A01 T00570041  RH  092%=      5-min Rain = 0
KSE1 151110Z 19004KT 06/04 A3026 RMK A01 T00570042  RH  092%=      5-min Rain = 0
KSE1 151115Z 19005KT 06/04 A3026 RMK A01 T00580042  RH  091%=      5-min Rain = 0
KSE1 151120Z 19005KT 06/04 A3025 RMK A01 T00580042  RH  091%=      5-min Rain = 0
KSE1 151125Z 19004KT 06/04 A3025 RMK A01 T00580042  RH  091%=      5-min Rain = 0
KSE1 151130Z 19005KT 06/04 A3025 RMK A01 T00580042  RH  091%=      5-min Rain = 0
KSE1 151135Z 19005KT 06/04 A3025 RMK A01 T00580042  RH  091%=      5-min Rain = 0
KSE1 151140Z 19005KT 06/04 A3025 RMK A01 T00590043  RH  091%=      5-min Rain = 0
KSE1 151145Z 19004KT 06/04 A3025 RMK A01 T00590043  RH  091%=      5-min Rain = 0
KSE1 151150Z 20004KT 06/04 A3025 RMK A01 T00590043  RH  091%=      5-min Rain = 0
KSE1 151155Z 20005KT 06/04 A3025 RMK A01 T00590043  RH  091%=      5-min Rain = 0
KSE1 151200Z 20005KT 06/04 A3025 RMK A01 T00590043  RH  091%=      5-min Rain = 0
KSE1 151205Z 20005KT 06/04 A3025 RMK A01 T00600044  RH  091%=      5-min Rain = 0
KSE1 151210Z 20005KT 06/04 A3025 RMK A01 T00600044  RH  091%=      5-min Rain = 0
KSE1 151215Z 21004KT 06/04 A3025 RMK A01 T00600044  RH  091%=      5-min Rain = 0
KSE1 151220Z 20005KT 06/04 A3025 RMK A01 T00590044  RH  091%=      5-min Rain = 0
KSE1 151225Z 20005KT 06/04 A3025 RMK A01 T00600044  RH  092%=      5-min Rain = 0
KSE1 151230Z 20006KT 06/05 A3026 RMK A01 T00610045  RH  091%=      5-min Rain = 0
KSE1 151235Z 20006KT 06/05 A3026 RMK A01 T00610045  RH  091%=      5-min Rain = 0
KSE1 151240Z 20006KT 06/05 A3026 RMK A01 T00620045  RH  091%=      5-min Rain = 0
KSE1 151245Z 20005KT 06/04 A3026 RMK A01 T00610044  RH  091%=      5-min Rain = 0
KSE1 151250Z 20006KT 06/05 A3026 RMK A01 T00620045  RH  091%=      5-min Rain = 0
KSE1 151255Z 20006KT 06/05 A3026 RMK A01 T00620045  RH  091%=      5-min Rain = 0
KSE1 151300Z 20006KT 06/05 A3026 RMK A01 T00630045  RH  090%=      5-min Rain = 0
KSE1 151305Z 20006KT 06/05 A3026 RMK A01 T00630045  RH  090%=      5-min Rain = 0
KSE1 151310Z 20006KT 06/05 A3027 RMK A01 T00630045  RH  090%=      5-min Rain = 0
KSE1 151315Z 20006KT 06/05 A3027 RMK A01 T00620045  RH  091%=      5-min Rain = 0
KSE1 151320Z 20006KT 06/05 A3027 RMK A01 T00630045  RH  091%=      5-min Rain = 0
KSE1 151325Z 20005KT 06/05 A3028 RMK A01 T00630045  RH  091%=      5-min Rain = 0
KSE1 151330Z 20005KT 06/05 A3027 RMK A01 T00620045  RH  091%=      5-min Rain = 0
KSE1 151335Z 19005KT 06/05 A3027 RMK A01 T00620045  RH  091%=      5-min Rain = 0
KSE1 151340Z 20005KT 06/05 A3027 RMK A01 T00630046  RH  091%=      5-min Rain = 0
KSE1 151345Z 19005KT 06/05 A3027 RMK A01 T00620046  RH  091%=      5-min Rain = 0
KSE1 151350Z 20004KT 06/05 A3027 RMK A01 T00630046  RH  091%=      5-min Rain = 0
KSE1 151355Z 19004KT 06/05 A3026 RMK A01 T00630046  RH  091%=      5-min Rain = 0
KSE1 151400Z 19005KT 06/05 A3026 RMK A01 T00630046  RH  091%=      5-min Rain = 0
KSE1 151405Z 19004KT 06/05 A3026 RMK A01 T00630046  RH  091%=      5-min Rain = 0
KSE1 151410Z 18004KT 06/05 A3026 RMK A01 T00630046  RH  091%=      5-min Rain = 0
KSE1 151415Z 19005KT 06/05 A3026 RMK A01 T00640046  RH  091%=      5-min Rain = 0
KSE1 151420Z 19004KT 06/05 A3026 RMK A01 T00640047  RH  090%=      5-min Rain = 0
KSE1 151425Z 19004KT 07/05 A3026 RMK A01 T00650047  RH  090%=      5-min Rain = 0
KSE1 151430Z 19004KT 07/05 A3026 RMK A01 T00650048  RH  090%=      5-min Rain = 0
KSE1 151435Z 20004KT 07/05 A3026 RMK A01 T00660048  RH  090%=      5-min Rain = 0
KSE1 151440Z 19005KT 07/05 A3026 RMK A01 T00670048  RH  090%=      5-min Rain = 0
KSE1 151445Z 19006KT 07/05 A3026 RMK A01 T00680049  RH  089%=      5-min Rain = 0
KSE1 151450Z 19006KT 07/05 A3027 RMK A01 T00690049  RH  089%=      5-min Rain = 0
KSE1 151455Z 19006KT 07/05 A3027 RMK A01 T00700049  RH  089%=      5-min Rain = 0
KSE1 151500Z 19007KT 07/05 A3027 RMK A01 T00700049  RH  088%=      5-min Rain = 0
KSE1 151505Z 20007KT 07/05 A3027 RMK A01 T00700048  RH  088%=      5-min Rain = 0
KSE1 151510Z 20007KT 07/05 A3027 RMK A01 T00710049  RH  088%=      5-min Rain = 0
KSE1 151515Z 19007KT 07/05 A3028 RMK A01 T00710048  RH  087%=      5-min Rain = 0
KSE1 151520Z 19007KT 07/05 A3028 RMK A01 T00720048  RH  087%=      5-min Rain = 0
KSE1 151525Z 19007KT 07/05 A3028 RMK A01 T00720048  RH  087%=      5-min Rain = 0
KSE1 151530Z 19007KT 07/05 A3028 RMK A01 T00720048  RH  087%=      5-min Rain = 0
KSE1 151535Z 19006KT 07/05 A3028 RMK A01 T00730049  RH  087%=      5-min Rain = 0
KSE1 151540Z 19007KT 07/05 A3028 RMK A01 T00730049  RH  086%=      5-min Rain = 0
KSE1 151545Z 19007KT 07/05 A3028 RMK A01 T00740049  RH  086%=      5-min Rain = 0
KSE1 151550Z 19007KT 08/05 A3028 RMK A01 T00750049  RH  085%=      5-min Rain = 0
KSE1 151555Z 19007KT 08/05 A3028 RMK A01 T00760049  RH  085%=      5-min Rain = 0
KSE1 151600Z 19008KT 08/05 A3028 RMK A01 T00760050  RH  085%=      5-min Rain = 0
KSE1 151605Z 19008KT 08/05 A3028 RMK A01 T00770050  RH  084%=      5-min Rain = 0
KSE1 151610Z 19008KT 08/05 A3028 RMK A01 T00790050  RH  084%=      5-min Rain = 0
KSE1 151615Z 19008KT 08/05 A3028 RMK A01 T00800051  RH  084%=      5-min Rain = 0
KSE1 151620Z 19009KT 08/05 A3028 RMK A01 T00810050  RH  083%=      5-min Rain = 0
KSE1 151625Z 19009KT 08/05 A3028 RMK A01 T00830052  RH  083%=      5-min Rain = 0
KSE1 151630Z 19009G14KT 08/05 A3028 RMK A01 T00840052  RH  082%=      5-min Rain = 0
KSE1 151635Z 19010KT 08/05 A3027 RMK A01 T00840051  RH  081%=      5-min Rain = 0
KSE1 151640Z 19010KT 09/05 A3027 RMK A01 T00860052  RH  081%=      5-min Rain = 0
KSE1 151645Z 19010KT 09/05 A3027 RMK A01 T00890053  RH  080%=      5-min Rain = 0
KSE1 151650Z 19010KT 09/05 A3027 RMK A01 T00910053  RH  079%=      5-min Rain = 0
KSE1 151655Z 19010KT 09/06 A3027 RMK A01 T00930055  RH  079%=      5-min Rain = 0
KSE1 151700Z 19010KT 10/06 A3026 RMK A01 T00950055  RH  078%=      5-min Rain = 0
KSE1 151705Z 20010KT 10/06 A3027 RMK A01 T00960055  RH  077%=      5-min Rain = 0
KSE1 151710Z 20011KT 10/06 A3026 RMK A01 T00980056  RH  077%=      5-min Rain = 0
KSE1 151715Z 19011KT 10/06 A3026 RMK A01 T00980056  RH  077%=      5-min Rain = 0
KSE1 151720Z 19011KT 10/06 A3026 RMK A01 T01000057  RH  076%=      5-min Rain = 0
KSE1 151725Z 19011KT 10/06 A3026 RMK A01 T01020057  RH  075%=      5-min Rain = 0
KSE1 151730Z 19010KT 10/06 A3026 RMK A01 T01040059  RH  075%=      5-min Rain = 0
KSE1 151735Z 19010KT 11/06 A3025 RMK A01 T01080059  RH  073%=      5-min Rain = 0
KSE1 151740Z 19011KT 11/06 A3025 RMK A01 T01090057  RH  072%=      5-min Rain = 0
KSE1 151745Z 20011G16KT 11/06 A3025 RMK A01 T01100058  RH  072%=      5-min Rain = 0
KSE1 151750Z 21012G17KT 11/06 A3025 RMK A01 T01100056  RH  071%=      5-min Rain = 0
KSE1 151755Z 20010G15KT 11/06 A3024 RMK A01 T01120059  RH  072%=      5-min Rain = 0
KSE1 151800Z 20012KT 11/06 A3024 RMK A01 T01120059  RH  072%=      5-min Rain = 0
KSE1 151805Z 19012KT 11/06 A3024 RMK A01 T01100058  RH  072%=      5-min Rain = 0
KSE1 151810Z 19012KT 11/06 A3024 RMK A01 T01120059  RH  071%=      5-min Rain = 0
KSE1 151815Z 19012KT 11/06 A3023 RMK A01 T01130059  RH  071%=      5-min Rain = 0
KSE1 151820Z 20012G18KT 11/06 A3023 RMK A01 T01130057  RH  070%=      5-min Rain = 0
KSE1 151825Z 19012KT 11/06 A3022 RMK A01 T01110057  RH  071%=      5-min Rain = 0
KSE1 151830Z 19010KT 11/06 A3022 RMK A01 T01130060  RH  072%=      5-min Rain = 0
KSE1 151835Z 19011KT 11/06 A3022 RMK A01 T01120058  RH  071%=      5-min Rain = 0
KSE1 151840Z 20013KT 11/06 A3021 RMK A01 T01110057  RH  071%=      5-min Rain = 0
KSE1 151845Z 21012KT 11/06 A3021 RMK A01 T01130059  RH  071%=      5-min Rain = 0
KSE1 151850Z 21014KT 11/06 A3021 RMK A01 T01120056  RH  070%=      5-min Rain = 0
KSE1 151855Z 21012KT 11/06 A3021 RMK A01 T01120058  RH  071%=      5-min Rain = 0
KSE1 151900Z 21013KT 11/06 A302 RMK A01 T01110057  RH  071%=      5-min Rain = 0
KSE1 151905Z 22014KT 11/06 A302 RMK A01 T01100056  RH  071%=      5-min Rain = 0
KSE1 151910Z 22013KT 11/06 A302 RMK A01 T01080055  RH  071%=      5-min Rain = 0
KSE1 151915Z 21012KT 11/06 A302 RMK A01 T01100057  RH  072%=      5-min Rain = 0
KSE1 151920Z 21013KT 11/06 A302 RMK A01 T01100057  RH  071%=      5-min Rain = 0
KSE1 151925Z 20012KT 11/06 A3019 RMK A01 T01100057  RH  071%=      5-min Rain = 0
KSE1 151930Z 21011G16KT 11/06 A3019 RMK A01 T01100058  RH  072%=      5-min Rain = 0
KSE1 151935Z 21011KT 11/06 A3018 RMK A01 T01100059  RH  072%=      5-min Rain = 0
KSE1 151940Z 22012G17KT 11/06 A3018 RMK A01 T01090057  RH  072%=      5-min Rain = 0
KSE1 151945Z 21012KT 11/06 A3018 RMK A01 T01090057  RH  072%=      5-min Rain = 0
KSE1 151950Z 20012KT 11/06 A3017 RMK A01 T01090057  RH  072%=      5-min Rain = 0
KSE1 151955Z 21011KT 11/06 A3017 RMK A01 T01100057  RH  072%=      5-min Rain = 0
KSE1 152000Z 20012KT 11/06 A3017 RMK A01 T01100056  RH  071%=      5-min Rain = 0
KSE1 152005Z 19011KT 11/06 A3016 RMK A01 T01110057  RH  071%=      5-min Rain = 0
KSE1 152010Z 19012KT 11/06 A3015 RMK A01 T01110056  RH  071%=      5-min Rain = 0
KSE1 152015Z 19013KT 11/06 A3015 RMK A01 T01100057  RH  071%=      5-min Rain = 0
KSE1 152020Z 19013KT 11/06 A3015 RMK A01 T01090056  RH  071%=      5-min Rain = 0
KSE1 152025Z 19011KT 11/06 A3015 RMK A01 T01090057  RH  072%=      5-min Rain = 0
KSE1 152030Z 20011KT 11/06 A3015 RMK A01 T01120059  RH  071%=      5-min Rain = 0
KSE1 152035Z 20011KT 11/06 A3015 RMK A01 T01130058  RH  071%=      5-min Rain = 0
KSE1 152040Z 20011KT 11/06 A3015 RMK A01 T01120057  RH  070%=      5-min Rain = 0
KSE1 152045Z 21012KT 11/06 A3016 RMK A01 T01090056  RH  071%=      5-min Rain = 0
KSE1 152050Z 21012KT 11/06 A3016 RMK A01 T01090056  RH  072%=      5-min Rain = 0
KSE1 152055Z 21009G14KT 11/06 A3016 RMK A01 T01090057  RH  072%=      5-min Rain = 0
KSE1 152100Z 19009KT 11/06 A3015 RMK A01 T01100059  RH  072%=      5-min Rain = 0
KSE1 152105Z 20009KT 11/06 A3015 RMK A01 T01110060  RH  072%=      5-min Rain = 0
KSE1 152110Z 20010G15KT 11/06 A3015 RMK A01 T01110060  RH  073%=      5-min Rain = 0
KSE1 152115Z 20010KT 11/06 A3015 RMK A01 T01110060  RH  073%=      5-min Rain = 0
KSE1 152120Z 19009G14KT 11/06 A3015 RMK A01 T01110060  RH  073%=      5-min Rain = 0
KSE1 152125Z 20011KT 11/06 A3015 RMK A01 T01100060  RH  073%=      5-min Rain = 0
KSE1 152130Z 19011KT 11/06 A3015 RMK A01 T01100060  RH  073%=      5-min Rain = 0
KSE1 152135Z 19010KT 11/06 A3015 RMK A01 T01090060  RH  073%=      5-min Rain = 0
KSE1 152140Z 20008KT 11/06 A3015 RMK A01 T01090060  RH  073%=      5-min Rain = 0
KSE1 152145Z 18009KT 11/06 A3015 RMK A01 T01100061  RH  073%=      5-min Rain = 0
KSE1 152150Z 18010KT 11/06 A3015 RMK A01 T01090061  RH  074%=      5-min Rain = 0
KSE1 152155Z 19009KT 11/06 A3015 RMK A01 T01090062  RH  074%=      5-min Rain = 0
KSE1 152200Z 20008KT 11/06 A3016 RMK A01 T01100061  RH  074%=      5-min Rain = 0
KSE1 152205Z 19008KT 11/06 A3016 RMK A01 T01100062  RH  074%=      5-min Rain = 0
KSE1 152210Z 18009KT 11/06 A3015 RMK A01 T01100062  RH  074%=      5-min Rain = 0
KSE1 152215Z 19007KT 11/06 A3016 RMK A01 T01100062  RH  074%=      5-min Rain = 0
KSE1 152220Z 18008KT 11/06 A3016 RMK A01 T01100062  RH  074%=      5-min Rain = 0
KSE1 152225Z 18007KT 11/06 A3016 RMK A01 T01100062  RH  074%=      5-min Rain = 0
KSE1 152230Z 19008KT 11/06 A3015 RMK A01 T01110062  RH  074%=      5-min Rain = 0
KSE1 152235Z 19007KT 11/06 A3015 RMK A01 T01110062  RH  074%=      5-min Rain = 0
KSE1 152240Z 19008KT 11/06 A3016 RMK A01 T01110063  RH  074%=      5-min Rain = 0
KSE1 152245Z 18009KT 11/06 A3016 RMK A01 T01100062  RH  074%=      5-min Rain = 0
KSE1 152250Z 18008KT 11/06 A3016 RMK A01 T01100062  RH  074%=      5-min Rain = 0
KSE1 152255Z 18007KT 11/06 A3015 RMK A01 T01100063  RH  074%=      5-min Rain = 0
KSE1 152300Z 18007KT 11/06 A3016 RMK A01 T01100062  RH  074%=      5-min Rain = 0
KSE1 152305Z 18008KT 11/06 A3016 RMK A01 T01100062  RH  074%=      5-min Rain = 0
KSE1 152310Z 18007KT 11/06 A3016 RMK A01 T01100063  RH  074%=      5-min Rain = 0
KSE1 152315Z 17007KT 11/06 A3015 RMK A01 T01090063  RH  075%=      5-min Rain = 0
KSE1 152320Z 17007KT 11/06 A3015 RMK A01 T01080063  RH  076%=      5-min Rain = 0
KSE1 152325Z 17008KT 11/06 A3015 RMK A01 T01080064  RH  076%=      5-min Rain = 0
KSE1 152330Z 17008KT 11/06 A3015 RMK A01 T01080063  RH  076%=      5-min Rain = 0
KSE1 152335Z 16007KT 11/06 A3015 RMK A01 T01070063  RH  076%=      5-min Rain = 0
KSE1 152340Z 17007KT 11/06 A3015 RMK A01 T01070063  RH  076%=      5-min Rain = 0
KSE1 152345Z 17008KT 11/06 A3015 RMK A01 T01070063  RH  076%=      5-min Rain = 0
KSE1 152350Z 17009KT 11/06 A3014 RMK A01 T01060062  RH  076%=      5-min Rain = 0
KSE1 152355Z 17009KT 11/06 A3014 RMK A01 T01050061  RH  076%=      5-min Rain = 0
KSE1 160000Z 17008KT 10/06 A3014 RMK A01 T01030061  RH  077%=      5-min Rain = 0
KSE1 160005Z 17009KT 10/06 A3015 RMK A01 T01020060  RH  077%=      5-min Rain = 0
KSE1 160010Z 17009KT 10/06 A3015 RMK A01 T01010060  RH  078%=      5-min Rain = 0
KSE1 160015Z 17009KT 10/06 A3015 RMK A01 T01010060  RH  078%=      5-min Rain = 0
KSE1 160020Z 17008KT 10/06 A3014 RMK A01 T01000060  RH  078%=      5-min Rain = 0
KSE1 160025Z 16008KT 10/06 A3014 RMK A01 T00970059  RH  079%=      5-min Rain = 0
KSE1 160030Z 16007KT 10/06 A3014 RMK A01 T00950058  RH  079%=      5-min Rain = 0
KSE1 160035Z 16007KT 09/06 A3015 RMK A01 T00930057  RH  080%=      5-min Rain = 0
KSE1 160040Z 16007KT 09/06 A3015 RMK A01 T00910057  RH  081%=      5-min Rain = 0
KSE1 160045Z 16007KT 09/06 A3015 RMK A01 T00890056  RH  082%=      5-min Rain = 0
KSE1 160050Z 16006KT 09/06 A3015 RMK A01 T00870055  RH  082%=      5-min Rain = 0
KSE1 160055Z 16006KT 09/06 A3015 RMK A01 T00860055  RH  083%=      5-min Rain = 0
KSE1 160100Z 16005KT 08/05 A3015 RMK A01 T00830054  RH  083%=      5-min Rain = 0
KSE1 160105Z 16006KT 08/05 A3015 RMK A01 T00820054  RH  084%=      5-min Rain = 0
KSE1 160110Z 16006KT 08/05 A3015 RMK A01 T00820053  RH  084%=      5-min Rain = 0
KSE1 160115Z 16006KT 08/05 A3015 RMK A01 T00800053  RH  085%=      5-min Rain = 0
KSE1 160120Z 16007KT 08/05 A3015 RMK A01 T00790053  RH  085%=      5-min Rain = 0
KSE1 160125Z 16007KT 08/05 A3015 RMK A01 T00780053  RH  086%=      5-min Rain = 0
KSE1 160130Z 17007KT 08/05 A3015 RMK A01 T00770052  RH  086%=      5-min Rain = 0
KSE1 160135Z 16006KT 08/05 A3015 RMK A01 T00770052  RH  086%=      5-min Rain = 0
KSE1 160140Z 16007KT 08/05 A3015 RMK A01 T00750051  RH  086%=      5-min Rain = 0
KSE1 160145Z 16007KT 08/05 A3015 RMK A01 T00750051  RH  087%=      5-min Rain = 0
KSE1 160150Z 16006KT 08/05 A3016 RMK A01 T00750051  RH  087%=      5-min Rain = 0
KSE1 160155Z 16006KT 07/05 A3016 RMK A01 T00740051  RH  087%=      5-min Rain = 0
KSE1 160200Z 16006KT 07/05 A3016 RMK A01 T00730051  RH  088%=      5-min Rain = 0
KSE1 160205Z 16006KT 07/05 A3016 RMK A01 T00730051  RH  088%=      5-min Rain = 0
KSE1 160210Z 16006KT 07/05 A3016 RMK A01 T00720051  RH  088%=      5-min Rain = 0
KSE1 160215Z 16006KT 07/05 A3016 RMK A01 T00700049  RH  089%=      5-min Rain = 0
KSE1 160220Z 16005KT 07/05 A3017 RMK A01 T00690049  RH  089%=      5-min Rain = 0
KSE1 160225Z 16006KT 07/05 A3017 RMK A01 T00690049  RH  090%=      5-min Rain = 0
KSE1 160230Z 16006KT 07/05 A3017 RMK A01 T00690050  RH  089%=      5-min Rain = 0
KSE1 160235Z 17006KT 07/05 A3017 RMK A01 T00700050  RH  089%=      5-min Rain = 0
KSE1 160240Z 17006KT 07/05 A3017 RMK A01 T00680049  RH  089%=      5-min Rain = 0
KSE1 160245Z 17006KT 07/05 A3017 RMK A01 T00690050  RH  090%=      5-min Rain = 0
KSE1 160250Z 17007KT 07/05 A3016 RMK A01 T00700051  RH  090%=      5-min Rain = 0
KSE1 160255Z 17008KT 07/05 A3016 RMK A01 T00700051  RH  090%=      5-min Rain = 0
KSE1 160300Z 16008KT 07/05 A3015 RMK A01 T00710051  RH  089%=      5-min Rain = 0
KSE1 160305Z 16008KT 07/05 A3015 RMK A01 T00700051  RH  090%=      5-min Rain = 0
KSE1 160310Z 17007KT 07/05 A3015 RMK A01 T00700051  RH  090%=      5-min Rain = 0
KSE1 160315Z 16007KT 07/05 A3015 RMK A01 T00700051  RH  090%=      5-min Rain = 0
KSE1 160320Z 17008KT 07/05 A3015 RMK A01 T00700051  RH  090%=      5-min Rain = 0
KSE1 160325Z 17008KT 07/05 A3015 RMK A01 T00700051  RH  090%=      5-min Rain = 0
KSE1 160330Z 17008KT 07/05 A3015 RMK A01 T00700051  RH  090%=      5-min Rain = 0
KSE1 160335Z 16008KT 07/05 A3014 RMK A01 T00700052  RH  090%=      5-min Rain = 0
KSE1 160340Z 16008KT 07/05 A3014 RMK A01 T00710052  RH  090%=      5-min Rain = 0
KSE1 160345Z 17008KT 07/05 A3014 RMK A01 T00710052  RH  090%=      5-min Rain = 0
KSE1 160350Z 17009KT 07/05 A3015 RMK A01 T00720053  RH  090%=      5-min Rain = 0
KSE1 160355Z 17011KT 07/05 A3014 RMK A01 T00740054  RH  089%=      5-min Rain = 0
KSE1 160400Z 17010KT 07/05 A3015 RMK A01 T00740053  RH  089%=      5-min Rain = 0
KSE1 160405Z 16010KT 07/05 A3014 RMK A01 T00720052  RH  089%=      5-min Rain = 0
KSE1 160410Z 16008KT 07/05 A3015 RMK A01 T00700051  RH  089%=      5-min Rain = 0
KSE1 160415Z 17008KT 07/05 A3015 RMK A01 T00680050  RH  090%=      5-min Rain = 0
KSE1 160420Z 16008KT 07/05 A3015 RMK A01 T00680050  RH  091%=      5-min Rain = 0
KSE1 160425Z 16008KT 07/05 A3015 RMK A01 T00670050  RH  091%=      5-min Rain = 0
KSE1 160430Z 16009KT 07/05 A3015 RMK A01 T00660049  RH  091%=      5-min Rain = 0
KSE1 160435Z 17009KT 07/05 A3015 RMK A01 T00660050  RH  091%=      5-min Rain = 0
KSE1 160440Z 17008KT 07/05 A3015 RMK A01 T00660049  RH  091%=      5-min Rain = 0
KSE1 160445Z 16007KT 06/05 A3015 RMK A01 T00640048  RH  091%=      5-min Rain = 0
KSE1 160450Z 16008KT 06/05 A3015 RMK A01 T00620047  RH  092%=      5-min Rain = 0
KSE1 160455Z 16007KT 06/05 A3015 RMK A01 T00620047  RH  092%=      5-min Rain = 0
KSE1 160500Z 16007KT 06/05 A3015 RMK A01 T00610046  RH  092%=      5-min Rain = 0
KSE1 160505Z 16007KT 06/05 A3015 RMK A01 T00610047  RH  093%=      5-min Rain = 0
KSE1 160510Z 16007KT 06/05 A3016 RMK A01 T00610047  RH  093%=      5-min Rain = 0
KSE1 160515Z 17006KT 06/05 A3016 RMK A01 T00600047  RH  093%=      5-min Rain = 0
KSE1 160520Z 17006KT 06/05 A3016 RMK A01 T00600046  RH  093%=      5-min Rain = 0
KSE1 160525Z 16007KT 06/05 A3015 RMK A01 T00580045  RH  093%=      5-min Rain = 0
KSE1 160530Z 16008KT 06/05 A3015 RMK A01 T00580046  RH  093%=      5-min Rain = 0
KSE1 160535Z 16009KT 06/05 A3015 RMK A01 T00590047  RH  094%=      5-min Rain = 0
KSE1 160540Z 16009KT 06/05 A3015 RMK A01 T00610048  RH  093%=      5-min Rain = 0
KSE1 160545Z 15009KT 06/05 A3015 RMK A01 T00610048  RH  093%=      5-min Rain = 0
KSE1 160550Z 16009KT 06/05 A3015 RMK A01 T00600047  RH  093%=      5-min Rain = 0
KSE1 160555Z 16009KT 06/05 A3015 RMK A01 T00580045  RH  093%=      5-min Rain = 0

Page generated in 0.0092 seconds.